sensor_id;sensor_type;location;lat;lon;timestamp;temperature;humidity
3648;DHT22;1840;48.892;15.312;2023-09-19T00:01:43;15.80;99.90
3648;DHT22;1840;48.892;15.312;2023-09-19T00:04:12;15.80;99.90
3648;DHT22;1840;48.892;15.312;2023-09-19T00:06:41;15.90;99.90
3648;DHT22;1840;48.892;15.312;2023-09-19T00:09:11;15.90;99.90
3648;DHT22;1840;48.892;15.312;2023-09-19T00:11:39;15.90;99.90
3648;DHT22;1840;48.892;15.312;2023-09-19T00:14:08;15.90;99.90
3648;DHT22;1840;48.892;15.312;2023-09-19T00:16:36;15.90;99.90
3648;DHT22;1840;48.892;15.312;2023-09-19T00:19:05;15.90;99.90
3648;DHT22;1840;48.892;15.312;2023-09-19T00:21:35;15.90;99.90
3648;DHT22;1840;48.892;15.312;2023-09-19T00:24:04;15.90;99.90
3648;DHT22;1840;48.892;15.312;2023-09-19T00:26:33;15.90;99.90
3648;DHT22;1840;48.892;15.312;2023-09-19T00:29:01;15.90;99.90
3648;DHT22;1840;48.892;15.312;2023-09-19T00:31:35;15.90;99.90
3648;DHT22;1840;48.892;15.312;2023-09-19T00:34:05;15.90;99.90
3648;DHT22;1840;48.892;15.312;2023-09-19T00:36:37;15.90;99.90
3648;DHT22;1840;48.892;15.312;2023-09-19T00:39:06;15.90;99.90
3648;DHT22;1840;48.892;15.312;2023-09-19T00:41:35;15.90;99.90
3648;DHT22;1840;48.892;15.312;2023-09-19T00:44:03;15.90;99.90
3648;DHT22;1840;48.892;15.312;2023-09-19T00:46:32;15.90;99.90
3648;DHT22;1840;48.892;15.312;2023-09-19T00:49:00;15.90;99.90
3648;DHT22;1840;48.892;15.312;2023-09-19T00:51:30;15.90;99.90
3648;DHT22;1840;48.892;15.312;2023-09-19T00:53:59;15.90;99.90
3648;DHT22;1840;48.892;15.312;2023-09-19T00:56:27;16.00;99.90
3648;DHT22;1840;48.892;15.312;2023-09-19T00:58:55;16.00;99.90
3648;DHT22;1840;48.892;15.312;2023-09-19T01:01:24;15.90;99.90
3648;DHT22;1840;48.892;15.312;2023-09-19T01:03:53;15.90;99.90
3648;DHT22;1840;48.892;15.312;2023-09-19T01:06:21;15.80;99.90
3648;DHT22;1840;48.892;15.312;2023-09-19T01:08:51;15.70;99.90
3648;DHT22;1840;48.892;15.312;2023-09-19T01:11:27;15.70;99.90
3648;DHT22;1840;48.892;15.312;2023-09-19T01:14:00;15.70;99.90
3648;DHT22;1840;48.892;15.312;2023-09-19T01:16:35;15.70;99.90
3648;DHT22;1840;48.892;15.312;2023-09-19T01:19:19;15.70;99.90
3648;DHT22;1840;48.892;15.312;2023-09-19T01:21:57;15.80;99.90
3648;DHT22;1840;48.892;15.312;2023-09-19T01:24:54;15.80;99.90
3648;DHT22;1840;48.892;15.312;2023-09-19T01:27:50;15.80;99.90
3648;DHT22;1840;48.892;15.312;2023-09-19T01:30:26;15.80;99.90
3648;DHT22;1840;48.892;15.312;2023-09-19T01:32:56;15.80;99.90
3648;DHT22;1840;48.892;15.312;2023-09-19T01:35:24;15.80;99.90
3648;DHT22;1840;48.892;15.312;2023-09-19T01:37:52;15.80;99.90
3648;DHT22;1840;48.892;15.312;2023-09-19T01:40:21;15.80;99.90
3648;DHT22;1840;48.892;15.312;2023-09-19T01:42:57;15.80;99.90
3648;DHT22;1840;48.892;15.312;2023-09-19T01:45:34;15.80;99.90
3648;DHT22;1840;48.892;15.312;2023-09-19T01:48:19;15.80;99.90
3648;DHT22;1840;48.892;15.312;2023-09-19T01:50:55;15.90;99.90
3648;DHT22;1840;48.892;15.312;2023-09-19T01:53:27;15.90;99.90
3648;DHT22;1840;48.892;15.312;2023-09-19T01:55:57;15.90;99.90
3648;DHT22;1840;48.892;15.312;2023-09-19T01:58:31;15.80;99.90
3648;DHT22;1840;48.892;15.312;2023-09-19T02:01:03;15.90;99.90
3648;DHT22;1840;48.892;15.312;2023-09-19T02:03:34;15.90;99.90
3648;DHT22;1840;48.892;15.312;2023-09-19T02:06:03;15.90;99.70
3648;DHT22;1840;48.892;15.312;2023-09-19T02:08:32;15.90;99.70
3648;DHT22;1840;48.892;15.312;2023-09-19T02:11:01;16.00;99.60
3648;DHT22;1840;48.892;15.312;2023-09-19T02:13:29;15.90;99.40
3648;DHT22;1840;48.892;15.312;2023-09-19T02:15:59;16.00;99.30
3648;DHT22;1840;48.892;15.312;2023-09-19T02:18:29;16.00;99.30
3648;DHT22;1840;48.892;15.312;2023-09-19T02:20:57;15.90;98.90
3648;DHT22;1840;48.892;15.312;2023-09-19T02:23:25;15.80;98.90
3648;DHT22;1840;48.892;15.312;2023-09-19T02:25:53;15.80;98.90
3648;DHT22;1840;48.892;15.312;2023-09-19T02:28:23;15.90;99.00
3648;DHT22;1840;48.892;15.312;2023-09-19T02:30:56;15.90;98.80
3648;DHT22;1840;48.892;15.312;2023-09-19T02:33:24;15.90;98.70
3648;DHT22;1840;48.892;15.312;2023-09-19T02:35:56;15.90;98.90
3648;DHT22;1840;48.892;15.312;2023-09-19T02:38:25;16.00;98.70
3648;DHT22;1840;48.892;15.312;2023-09-19T02:40:53;16.10;98.80
3648;DHT22;1840;48.892;15.312;2023-09-19T02:43:22;16.10;98.60
3648;DHT22;1840;48.892;15.312;2023-09-19T02:45:51;16.00;98.50
3648;DHT22;1840;48.892;15.312;2023-09-19T02:48:20;16.00;98.50
3648;DHT22;1840;48.892;15.312;2023-09-19T02:50:49;16.00;98.60
3648;DHT22;1840;48.892;15.312;2023-09-19T02:53:19;16.00;98.60
3648;DHT22;1840;48.892;15.312;2023-09-19T02:55:47;15.90;98.60
3648;DHT22;1840;48.892;15.312;2023-09-19T02:58:15;16.00;98.70
3648;DHT22;1840;48.892;15.312;2023-09-19T03:00:46;15.90;98.70
3648;DHT22;1840;48.892;15.312;2023-09-19T03:03:14;15.80;98.80
3648;DHT22;1840;48.892;15.312;2023-09-19T03:05:43;15.80;98.90
3648;DHT22;1840;48.892;15.312;2023-09-19T03:08:13;15.70;99.10
3648;DHT22;1840;48.892;15.312;2023-09-19T03:10:47;15.70;99.20
3648;DHT22;1840;48.892;15.312;2023-09-19T03:13:15;15.60;99.60
3648;DHT22;1840;48.892;15.312;2023-09-19T03:15:44;15.60;99.40
3648;DHT22;1840;48.892;15.312;2023-09-19T03:18:13;15.60;99.60
3648;DHT22;1840;48.892;15.312;2023-09-19T03:20:42;15.50;99.50
3648;DHT22;1840;48.892;15.312;2023-09-19T03:23:11;15.40;99.50
3648;DHT22;1840;48.892;15.312;2023-09-19T03:25:40;15.40;99.70
3648;DHT22;1840;48.892;15.312;2023-09-19T03:28:09;15.40;99.70
3648;DHT22;1840;48.892;15.312;2023-09-19T03:30:37;15.40;99.70
3648;DHT22;1840;48.892;15.312;2023-09-19T03:33:06;15.40;99.70
3648;DHT22;1840;48.892;15.312;2023-09-19T03:35:34;15.30;99.90
3648;DHT22;1840;48.892;15.312;2023-09-19T03:38:03;15.20;99.90
3648;DHT22;1840;48.892;15.312;2023-09-19T03:40:31;15.20;99.90
3648;DHT22;1840;48.892;15.312;2023-09-19T03:43:00;15.20;99.90
3648;DHT22;1840;48.892;15.312;2023-09-19T03:45:30;15.10;99.90
3648;DHT22;1840;48.892;15.312;2023-09-19T03:47:58;15.10;99.90
3648;DHT22;1840;48.892;15.312;2023-09-19T03:50:26;15.10;99.90
3648;DHT22;1840;48.892;15.312;2023-09-19T03:52:57;15.00;99.90
3648;DHT22;1840;48.892;15.312;2023-09-19T03:55:25;15.00;99.90
3648;DHT22;1840;48.892;15.312;2023-09-19T03:57:53;14.90;99.90
3648;DHT22;1840;48.892;15.312;2023-09-19T04:00:21;15.00;99.90
3648;DHT22;1840;48.892;15.312;2023-09-19T04:02:53;15.00;99.90
3648;DHT22;1840;48.892;15.312;2023-09-19T04:05:23;15.00;99.90
3648;DHT22;1840;48.892;15.312;2023-09-19T04:07:51;15.00;99.90
3648;DHT22;1840;48.892;15.312;2023-09-19T04:10:20;15.10;99.90
3648;DHT22;1840;48.892;15.312;2023-09-19T04:12:51;15.10;99.90
3648;DHT22;1840;48.892;15.312;2023-09-19T04:15:20;15.10;99.90
3648;DHT22;1840;48.892;15.312;2023-09-19T04:17:49;15.10;99.90
3648;DHT22;1840;48.892;15.312;2023-09-19T04:20:19;15.10;99.90
3648;DHT22;1840;48.892;15.312;2023-09-19T04:22:49;15.10;99.90
3648;DHT22;1840;48.892;15.312;2023-09-19T04:25:17;15.10;99.90
3648;DHT22;1840;48.892;15.312;2023-09-19T04:27:46;15.10;99.90
3648;DHT22;1840;48.892;15.312;2023-09-19T04:30:14;15.10;99.90
3648;DHT22;1840;48.892;15.312;2023-09-19T04:32:43;15.10;99.90
3648;DHT22;1840;48.892;15.312;2023-09-19T04:35:11;15.10;99.90
3648;DHT22;1840;48.892;15.312;2023-09-19T04:37:41;15.00;99.90
3648;DHT22;1840;48.892;15.312;2023-09-19T04:40:10;15.10;99.90
3648;DHT22;1840;48.892;15.312;2023-09-19T04:42:44;15.00;99.90
3648;DHT22;1840;48.892;15.312;2023-09-19T04:45:13;15.10;99.90
3648;DHT22;1840;48.892;15.312;2023-09-19T04:47:41;15.10;99.90
3648;DHT22;1840;48.892;15.312;2023-09-19T04:50:11;15.00;99.90
3648;DHT22;1840;48.892;15.312;2023-09-19T04:52:43;15.00;99.90
3648;DHT22;1840;48.892;15.312;2023-09-19T04:55:12;15.00;99.90
3648;DHT22;1840;48.892;15.312;2023-09-19T04:57:44;15.00;99.90
3648;DHT22;1840;48.892;15.312;2023-09-19T05:00:13;15.00;99.90
3648;DHT22;1840;48.892;15.312;2023-09-19T05:02:43;15.00;99.90
3648;DHT22;1840;48.892;15.312;2023-09-19T05:05:11;15.00;99.90
3648;DHT22;1840;48.892;15.312;2023-09-19T05:07:43;15.10;99.90
3648;DHT22;1840;48.892;15.312;2023-09-19T05:10:12;15.00;99.90
3648;DHT22;1840;48.892;15.312;2023-09-19T05:12:41;15.10;99.90
3648;DHT22;1840;48.892;15.312;2023-09-19T05:15:11;15.00;99.90
3648;DHT22;1840;48.892;15.312;2023-09-19T05:17:41;15.10;99.90
3648;DHT22;1840;48.892;15.312;2023-09-19T05:20:10;15.00;99.90
3648;DHT22;1840;48.892;15.312;2023-09-19T05:22:42;15.10;99.90
3648;DHT22;1840;48.892;15.312;2023-09-19T05:25:13;15.10;99.90
3648;DHT22;1840;48.892;15.312;2023-09-19T05:27:43;15.20;99.90
3648;DHT22;1840;48.892;15.312;2023-09-19T05:30:12;15.20;99.90
3648;DHT22;1840;48.892;15.312;2023-09-19T05:32:41;15.20;99.90
3648;DHT22;1840;48.892;15.312;2023-09-19T05:35:10;15.30;99.90
3648;DHT22;1840;48.892;15.312;2023-09-19T05:37:39;15.20;99.90
3648;DHT22;1840;48.892;15.312;2023-09-19T05:40:10;15.20;99.90
3648;DHT22;1840;48.892;15.312;2023-09-19T05:42:38;15.30;99.90
3648;DHT22;1840;48.892;15.312;2023-09-19T05:45:08;15.40;99.90
3648;DHT22;1840;48.892;15.312;2023-09-19T05:47:39;15.40;99.90
3648;DHT22;1840;48.892;15.312;2023-09-19T05:50:10;15.40;99.90
3648;DHT22;1840;48.892;15.312;2023-09-19T05:52:38;15.50;99.90
3648;DHT22;1840;48.892;15.312;2023-09-19T05:55:09;15.50;99.90
3648;DHT22;1840;48.892;15.312;2023-09-19T05:57:37;15.60;99.90
3648;DHT22;1840;48.892;15.312;2023-09-19T06:00:07;15.60;99.90
3648;DHT22;1840;48.892;15.312;2023-09-19T06:02:37;15.60;99.90
3648;DHT22;1840;48.892;15.312;2023-09-19T06:05:07;15.60;99.90
3648;DHT22;1840;48.892;15.312;2023-09-19T06:07:37;15.60;99.90
3648;DHT22;1840;48.892;15.312;2023-09-19T06:10:05;15.60;99.90
3648;DHT22;1840;48.892;15.312;2023-09-19T06:12:37;15.60;99.90
3648;DHT22;1840;48.892;15.312;2023-09-19T06:15:06;15.60;99.90
3648;DHT22;1840;48.892;15.312;2023-09-19T06:17:35;15.80;99.90
3648;DHT22;1840;48.892;15.312;2023-09-19T06:20:05;15.80;99.90
3648;DHT22;1840;48.892;15.312;2023-09-19T06:22:40;15.80;99.90
3648;DHT22;1840;48.892;15.312;2023-09-19T06:25:09;15.90;99.90
3648;DHT22;1840;48.892;15.312;2023-09-19T06:27:40;15.90;99.90
3648;DHT22;1840;48.892;15.312;2023-09-19T06:30:10;15.90;99.90
3648;DHT22;1840;48.892;15.312;2023-09-19T06:32:40;15.90;99.90
3648;DHT22;1840;48.892;15.312;2023-09-19T06:35:11;15.90;99.90
3648;DHT22;1840;48.892;15.312;2023-09-19T06:37:40;15.90;99.90
3648;DHT22;1840;48.892;15.312;2023-09-19T06:40:10;16.00;99.90
3648;DHT22;1840;48.892;15.312;2023-09-19T06:42:43;15.90;99.90
3648;DHT22;1840;48.892;15.312;2023-09-19T06:45:12;16.00;99.90
3648;DHT22;1840;48.892;15.312;2023-09-19T06:47:45;16.10;99.90
3648;DHT22;1840;48.892;15.312;2023-09-19T06:50:16;16.10;99.90
3648;DHT22;1840;48.892;15.312;2023-09-19T06:52:46;16.20;99.90
3648;DHT22;1840;48.892;15.312;2023-09-19T06:55:17;16.20;99.90
3648;DHT22;1840;48.892;15.312;2023-09-19T06:57:48;16.30;99.90
3648;DHT22;1840;48.892;15.312;2023-09-19T07:00:17;16.40;99.80
3648;DHT22;1840;48.892;15.312;2023-09-19T07:02:55;16.30;99.60
3648;DHT22;1840;48.892;15.312;2023-09-19T07:05:24;16.30;99.50
3648;DHT22;1840;48.892;15.312;2023-09-19T07:07:54;16.40;99.70
3648;DHT22;1840;48.892;15.312;2023-09-19T07:10:23;16.50;99.70
3648;DHT22;1840;48.892;15.312;2023-09-19T07:12:57;16.40;99.60
3648;DHT22;1840;48.892;15.312;2023-09-19T07:15:26;16.30;99.70
3648;DHT22;1840;48.892;15.312;2023-09-19T07:17:54;16.30;99.80
3648;DHT22;1840;48.892;15.312;2023-09-19T07:20:24;16.40;99.80
3648;DHT22;1840;48.892;15.312;2023-09-19T07:22:53;16.40;99.50
3648;DHT22;1840;48.892;15.312;2023-09-19T07:25:22;16.40;99.60
3648;DHT22;1840;48.892;15.312;2023-09-19T07:27:51;16.40;99.90
3648;DHT22;1840;48.892;15.312;2023-09-19T07:30:20;16.60;99.60
3648;DHT22;1840;48.892;15.312;2023-09-19T07:32:48;16.60;99.40
3648;DHT22;1840;48.892;15.312;2023-09-19T07:35:17;16.60;99.20
3648;DHT22;1840;48.892;15.312;2023-09-19T07:37:46;16.60;99.50
3648;DHT22;1840;48.892;15.312;2023-09-19T07:40:18;16.70;99.50
3648;DHT22;1840;48.892;15.312;2023-09-19T07:42:47;16.80;99.60
3648;DHT22;1840;48.892;15.312;2023-09-19T07:45:16;16.90;99.70
3648;DHT22;1840;48.892;15.312;2023-09-19T07:47:46;17.10;99.30
3648;DHT22;1840;48.892;15.312;2023-09-19T07:50:14;17.20;99.20
3648;DHT22;1840;48.892;15.312;2023-09-19T07:52:45;17.30;99.20
3648;DHT22;1840;48.892;15.312;2023-09-19T07:55:13;17.30;98.70
3648;DHT22;1840;48.892;15.312;2023-09-19T07:57:44;17.40;98.80
3648;DHT22;1840;48.892;15.312;2023-09-19T08:00:13;17.40;98.80
3648;DHT22;1840;48.892;15.312;2023-09-19T08:02:42;17.20;98.10
3648;DHT22;1840;48.892;15.312;2023-09-19T08:05:14;17.20;98.70
3648;DHT22;1840;48.892;15.312;2023-09-19T08:07:44;17.20;98.30
3648;DHT22;1840;48.892;15.312;2023-09-19T08:10:15;17.20;98.50
3648;DHT22;1840;48.892;15.312;2023-09-19T08:12:46;17.20;98.60
3648;DHT22;1840;48.892;15.312;2023-09-19T08:15:16;17.40;98.90
3648;DHT22;1840;48.892;15.312;2023-09-19T08:17:44;17.60;98.80
3648;DHT22;1840;48.892;15.312;2023-09-19T08:20:14;17.80;98.50
3648;DHT22;1840;48.892;15.312;2023-09-19T08:22:47;18.10;98.50
3648;DHT22;1840;48.892;15.312;2023-09-19T08:25:16;18.40;98.00
3648;DHT22;1840;48.892;15.312;2023-09-19T08:27:45;18.50;98.00
3648;DHT22;1840;48.892;15.312;2023-09-19T08:30:15;18.20;97.60
3648;DHT22;1840;48.892;15.312;2023-09-19T08:32:43;18.20;97.50
3648;DHT22;1840;48.892;15.312;2023-09-19T08:35:14;17.80;97.80
3648;DHT22;1840;48.892;15.312;2023-09-19T08:37:43;17.50;97.90
3648;DHT22;1840;48.892;15.312;2023-09-19T08:40:12;17.70;98.10
3648;DHT22;1840;48.892;15.312;2023-09-19T08:42:50;17.90;98.00
3648;DHT22;1840;48.892;15.312;2023-09-19T08:45:19;17.90;97.60
3648;DHT22;1840;48.892;15.312;2023-09-19T08:48:08;17.80;97.80
3648;DHT22;1840;48.892;15.312;2023-09-19T08:50:49;18.00;98.10
3648;DHT22;1840;48.892;15.312;2023-09-19T08:53:23;18.00;97.40
3648;DHT22;1840;48.892;15.312;2023-09-19T08:55:54;18.00;97.30
3648;DHT22;1840;48.892;15.312;2023-09-19T08:58:27;17.90;97.30
3648;DHT22;1840;48.892;15.312;2023-09-19T09:00:57;17.90;97.40
3648;DHT22;1840;48.892;15.312;2023-09-19T09:03:32;17.80;97.10
3648;DHT22;1840;48.892;15.312;2023-09-19T09:06:02;17.50;97.40
3648;DHT22;1840;48.892;15.312;2023-09-19T09:08:31;17.40;97.80
3648;DHT22;1840;48.892;15.312;2023-09-19T09:10:59;17.60;97.80
3648;DHT22;1840;48.892;15.312;2023-09-19T09:13:28;17.80;97.50
3648;DHT22;1840;48.892;15.312;2023-09-19T09:15:56;18.00;97.30
3648;DHT22;1840;48.892;15.312;2023-09-19T09:18:26;18.00;97.10
3648;DHT22;1840;48.892;15.312;2023-09-19T09:20:54;18.10;97.50
3648;DHT22;1840;48.892;15.312;2023-09-19T09:23:24;18.40;97.70
3648;DHT22;1840;48.892;15.312;2023-09-19T09:25:53;18.60;97.10
3648;DHT22;1840;48.892;15.312;2023-09-19T09:28:30;18.40;96.90
3648;DHT22;1840;48.892;15.312;2023-09-19T09:31:00;18.00;96.80
3648;DHT22;1840;48.892;15.312;2023-09-19T09:33:29;18.20;97.50
3648;DHT22;1840;48.892;15.312;2023-09-19T09:35:58;18.50;96.50
3648;DHT22;1840;48.892;15.312;2023-09-19T09:38:43;18.60;96.50
3648;DHT22;1840;48.892;15.312;2023-09-19T09:41:12;18.80;96.50
3648;DHT22;1840;48.892;15.312;2023-09-19T09:43:53;19.00;96.50
3648;DHT22;1840;48.892;15.312;2023-09-19T09:46:21;18.90;96.00
3648;DHT22;1840;48.892;15.312;2023-09-19T09:49:10;18.70;95.70
3648;DHT22;1840;48.892;15.312;2023-09-19T09:51:59;18.60;96.20
3648;DHT22;1840;48.892;15.312;2023-09-19T09:54:37;18.80;96.30
3648;DHT22;1840;48.892;15.312;2023-09-19T09:57:06;18.70;95.70
3648;DHT22;1840;48.892;15.312;2023-09-19T09:59:48;18.60;96.10
3648;DHT22;1840;48.892;15.312;2023-09-19T10:02:25;18.60;96.00
3648;DHT22;1840;48.892;15.312;2023-09-19T10:04:56;18.70;96.30
3648;DHT22;1840;48.892;15.312;2023-09-19T10:07:37;18.50;96.00
3648;DHT22;1840;48.892;15.312;2023-09-19T10:10:12;18.40;96.30
3648;DHT22;1840;48.892;15.312;2023-09-19T10:12:45;18.30;96.30
3648;DHT22;1840;48.892;15.312;2023-09-19T10:15:16;18.20;96.90
3648;DHT22;1840;48.892;15.312;2023-09-19T10:17:47;18.30;96.70
3648;DHT22;1840;48.892;15.312;2023-09-19T10:20:17;18.10;96.60
3648;DHT22;1840;48.892;15.312;2023-09-19T10:23:03;17.80;97.10
3648;DHT22;1840;48.892;15.312;2023-09-19T10:25:39;17.70;97.60
3648;DHT22;1840;48.892;15.312;2023-09-19T10:28:08;17.60;97.80
3648;DHT22;1840;48.892;15.312;2023-09-19T10:30:42;17.40;99.20
3648;DHT22;1840;48.892;15.312;2023-09-19T10:33:12;17.20;99.40
3648;DHT22;1840;48.892;15.312;2023-09-19T10:35:43;16.80;99.80
3648;DHT22;1840;48.892;15.312;2023-09-19T10:38:12;16.60;99.90
3648;DHT22;1840;48.892;15.312;2023-09-19T10:40:49;16.70;99.90
3648;DHT22;1840;48.892;15.312;2023-09-19T10:43:19;16.70;99.90
3648;DHT22;1840;48.892;15.312;2023-09-19T10:45:49;16.80;99.90
3648;DHT22;1840;48.892;15.312;2023-09-19T10:48:20;17.10;99.90
3648;DHT22;1840;48.892;15.312;2023-09-19T10:50:58;17.10;99.90
3648;DHT22;1840;48.892;15.312;2023-09-19T10:53:43;16.90;99.90
3648;DHT22;1840;48.892;15.312;2023-09-19T10:56:19;17.30;99.90
3648;DHT22;1840;48.892;15.312;2023-09-19T10:58:49;17.70;99.90
3648;DHT22;1840;48.892;15.312;2023-09-19T11:01:18;18.00;99.90
3648;DHT22;1840;48.892;15.312;2023-09-19T11:03:47;17.80;99.80
3648;DHT22;1840;48.892;15.312;2023-09-19T11:06:20;17.80;99.10
3648;DHT22;1840;48.892;15.312;2023-09-19T11:08:56;17.80;99.20
3648;DHT22;1840;48.892;15.312;2023-09-19T11:11:44;17.90;99.50
3648;DHT22;1840;48.892;15.312;2023-09-19T11:14:40;17.70;97.80
3648;DHT22;1840;48.892;15.312;2023-09-19T11:17:31;17.60;97.60
3648;DHT22;1840;48.892;15.312;2023-09-19T11:20:24;17.60;97.30
3648;DHT22;1840;48.892;15.312;2023-09-19T11:23:18;17.60;97.70
3648;DHT22;1840;48.892;15.312;2023-09-19T11:25:49;17.60;97.80
3648;DHT22;1840;48.892;15.312;2023-09-19T11:28:32;17.60;98.20
3648;DHT22;1840;48.892;15.312;2023-09-19T11:34:48;17.70;98.10
3648;DHT22;1840;48.892;15.312;2023-09-19T11:40:34;17.80;98.10
3648;DHT22;1840;48.892;15.312;2023-09-19T11:43:31;17.60;98.40
3648;DHT22;1840;48.892;15.312;2023-09-19T11:46:03;17.60;98.50
3648;DHT22;1840;48.892;15.312;2023-09-19T11:48:32;17.80;98.60
3648;DHT22;1840;48.892;15.312;2023-09-19T11:51:03;18.00;98.60
3648;DHT22;1840;48.892;15.312;2023-09-19T11:53:42;18.20;98.10
3648;DHT22;1840;48.892;15.312;2023-09-19T11:56:11;18.30;98.00
3648;DHT22;1840;48.892;15.312;2023-09-19T11:58:44;18.30;98.20
3648;DHT22;1840;48.892;15.312;2023-09-19T12:01:13;18.40;98.10
3648;DHT22;1840;48.892;15.312;2023-09-19T12:03:47;18.40;98.60
3648;DHT22;1840;48.892;15.312;2023-09-19T12:06:22;18.70;98.90
3648;DHT22;1840;48.892;15.312;2023-09-19T12:08:50;18.90;98.90
3648;DHT22;1840;48.892;15.312;2023-09-19T12:11:22;19.20;98.10
3648;DHT22;1840;48.892;15.312;2023-09-19T12:13:52;19.00;97.30
3648;DHT22;1840;48.892;15.312;2023-09-19T12:16:26;18.80;96.80
3648;DHT22;1840;48.892;15.312;2023-09-19T12:18:57;18.70;97.00
3648;DHT22;1840;48.892;15.312;2023-09-19T12:21:27;18.60;97.30
3648;DHT22;1840;48.892;15.312;2023-09-19T12:24:06;18.60;97.60
3648;DHT22;1840;48.892;15.312;2023-09-19T12:26:39;18.90;98.10
3648;DHT22;1840;48.892;15.312;2023-09-19T12:29:14;19.20;97.90
3648;DHT22;1840;48.892;15.312;2023-09-19T12:31:51;19.40;96.70
3648;DHT22;1840;48.892;15.312;2023-09-19T12:34:25;19.50;96.60
3648;DHT22;1840;48.892;15.312;2023-09-19T12:37:05;19.70;96.20
3648;DHT22;1840;48.892;15.312;2023-09-19T12:39:42;19.80;96.30
3648;DHT22;1840;48.892;15.312;2023-09-19T12:42:11;20.00;96.10
3648;DHT22;1840;48.892;15.312;2023-09-19T12:44:44;20.30;95.20
3648;DHT22;1840;48.892;15.312;2023-09-19T12:47:15;20.20;95.00
3648;DHT22;1840;48.892;15.312;2023-09-19T12:50:06;20.10;94.30
3648;DHT22;1840;48.892;15.312;2023-09-19T12:52:35;20.30;94.80
3648;DHT22;1840;48.892;15.312;2023-09-19T12:55:05;20.30;93.70
3648;DHT22;1840;48.892;15.312;2023-09-19T12:57:34;20.10;92.60
3648;DHT22;1840;48.892;15.312;2023-09-19T13:00:04;20.20;93.30
3648;DHT22;1840;48.892;15.312;2023-09-19T13:02:34;20.30;93.10
3648;DHT22;1840;48.892;15.312;2023-09-19T13:05:03;20.20;92.40
3648;DHT22;1840;48.892;15.312;2023-09-19T13:07:40;20.20;92.00
3648;DHT22;1840;48.892;15.312;2023-09-19T13:10:10;20.20;93.00
3648;DHT22;1840;48.892;15.312;2023-09-19T13:12:43;20.30;92.70
3648;DHT22;1840;48.892;15.312;2023-09-19T13:15:15;20.30;92.60
3648;DHT22;1840;48.892;15.312;2023-09-19T13:17:48;20.40;92.60
3648;DHT22;1840;48.892;15.312;2023-09-19T13:20:23;20.60;91.90
3648;DHT22;1840;48.892;15.312;2023-09-19T13:22:55;20.50;91.80
3648;DHT22;1840;48.892;15.312;2023-09-19T13:25:33;20.50;91.30
3648;DHT22;1840;48.892;15.312;2023-09-19T13:28:01;20.70;91.20
3648;DHT22;1840;48.892;15.312;2023-09-19T13:30:37;20.80;91.60
3648;DHT22;1840;48.892;15.312;2023-09-19T13:33:10;20.80;90.50
3648;DHT22;1840;48.892;15.312;2023-09-19T13:35:40;20.60;89.00
3648;DHT22;1840;48.892;15.312;2023-09-19T13:38:08;20.50;90.20
3648;DHT22;1840;48.892;15.312;2023-09-19T13:40:38;20.60;90.00
3648;DHT22;1840;48.892;15.312;2023-09-19T13:43:09;20.60;89.80
3648;DHT22;1840;48.892;15.312;2023-09-19T13:45:39;20.50;89.20
3648;DHT22;1840;48.892;15.312;2023-09-19T13:48:09;20.50;88.70
3648;DHT22;1840;48.892;15.312;2023-09-19T13:50:38;20.50;89.60
3648;DHT22;1840;48.892;15.312;2023-09-19T13:53:08;20.70;89.60
3648;DHT22;1840;48.892;15.312;2023-09-19T13:55:37;20.80;89.10
3648;DHT22;1840;48.892;15.312;2023-09-19T13:58:05;20.90;88.60
3648;DHT22;1840;48.892;15.312;2023-09-19T14:00:34;20.70;89.50
3648;DHT22;1840;48.892;15.312;2023-09-19T14:03:04;20.60;89.10
3648;DHT22;1840;48.892;15.312;2023-09-19T14:05:32;20.50;88.00
3648;DHT22;1840;48.892;15.312;2023-09-19T14:08:00;20.50;89.30
3648;DHT22;1840;48.892;15.312;2023-09-19T14:10:30;20.40;89.20
3648;DHT22;1840;48.892;15.312;2023-09-19T14:12:59;20.40;89.00
3648;DHT22;1840;48.892;15.312;2023-09-19T14:15:27;20.60;87.90
3648;DHT22;1840;48.892;15.312;2023-09-19T14:17:57;20.70;88.90
3648;DHT22;1840;48.892;15.312;2023-09-19T14:20:27;20.90;87.90
3648;DHT22;1840;48.892;15.312;2023-09-19T14:22:56;20.80;88.70
3648;DHT22;1840;48.892;15.312;2023-09-19T14:25:25;20.90;90.10
3648;DHT22;1840;48.892;15.312;2023-09-19T14:27:53;21.10;86.10
3648;DHT22;1840;48.892;15.312;2023-09-19T14:30:21;21.10;87.80
3648;DHT22;1840;48.892;15.312;2023-09-19T14:32:50;20.80;86.40
3648;DHT22;1840;48.892;15.312;2023-09-19T14:35:18;20.50;86.40
3648;DHT22;1840;48.892;15.312;2023-09-19T14:37:48;20.20;87.60
3648;DHT22;1840;48.892;15.312;2023-09-19T14:40:16;20.10;88.40
3648;DHT22;1840;48.892;15.312;2023-09-19T14:42:44;20.00;89.10
3648;DHT22;1840;48.892;15.312;2023-09-19T14:45:14;19.80;89.40
3648;DHT22;1840;48.892;15.312;2023-09-19T14:47:46;19.70;88.70
3648;DHT22;1840;48.892;15.312;2023-09-19T14:50:14;19.50;88.90
3648;DHT22;1840;48.892;15.312;2023-09-19T14:52:43;19.50;89.00
3648;DHT22;1840;48.892;15.312;2023-09-19T14:55:15;19.50;89.60
3648;DHT22;1840;48.892;15.312;2023-09-19T14:57:43;19.40;89.30
3648;DHT22;1840;48.892;15.312;2023-09-19T15:00:13;19.40;89.70
3648;DHT22;1840;48.892;15.312;2023-09-19T15:02:43;19.40;90.30
3648;DHT22;1840;48.892;15.312;2023-09-19T15:05:13;19.40;90.40
3648;DHT22;1840;48.892;15.312;2023-09-19T15:07:45;19.20;90.90
3648;DHT22;1840;48.892;15.312;2023-09-19T15:10:15;19.00;91.40
3648;DHT22;1840;48.892;15.312;2023-09-19T15:12:45;18.90;91.50
3648;DHT22;1840;48.892;15.312;2023-09-19T15:15:13;18.80;91.60
3648;DHT22;1840;48.892;15.312;2023-09-19T15:17:41;18.70;91.80
3648;DHT22;1840;48.892;15.312;2023-09-19T15:20:10;18.70;92.20
3648;DHT22;1840;48.892;15.312;2023-09-19T15:22:41;18.70;92.40
3648;DHT22;1840;48.892;15.312;2023-09-19T15:25:09;18.70;92.70
3648;DHT22;1840;48.892;15.312;2023-09-19T15:27:39;18.70;92.40
3648;DHT22;1840;48.892;15.312;2023-09-19T15:30:09;18.70;92.60
3648;DHT22;1840;48.892;15.312;2023-09-19T15:32:38;18.80;92.60
3648;DHT22;1840;48.892;15.312;2023-09-19T15:35:06;18.80;92.70
3648;DHT22;1840;48.892;15.312;2023-09-19T15:37:36;18.90;92.60
3648;DHT22;1840;48.892;15.312;2023-09-19T15:40:05;19.00;92.50
3648;DHT22;1840;48.892;15.312;2023-09-19T15:42:39;18.80;92.60
3648;DHT22;1840;48.892;15.312;2023-09-19T15:45:07;18.80;92.60
3648;DHT22;1840;48.892;15.312;2023-09-19T15:47:37;18.80;92.70
3648;DHT22;1840;48.892;15.312;2023-09-19T15:50:06;18.90;93.00
3648;DHT22;1840;48.892;15.312;2023-09-19T15:52:36;19.10;92.50
3648;DHT22;1840;48.892;15.312;2023-09-19T15:55:05;19.00;92.30
3648;DHT22;1840;48.892;15.312;2023-09-19T15:57:35;19.00;92.00
3648;DHT22;1840;48.892;15.312;2023-09-19T16:00:06;19.00;92.30
3648;DHT22;1840;48.892;15.312;2023-09-19T16:02:39;19.10;92.10
3648;DHT22;1840;48.892;15.312;2023-09-19T16:05:08;19.20;92.30
3648;DHT22;1840;48.892;15.312;2023-09-19T16:07:36;19.20;92.30
3648;DHT22;1840;48.892;15.312;2023-09-19T16:10:06;19.20;92.20
3648;DHT22;1840;48.892;15.312;2023-09-19T16:12:35;19.00;92.00
3648;DHT22;1840;48.892;15.312;2023-09-19T16:15:06;19.00;92.10
3648;DHT22;1840;48.892;15.312;2023-09-19T16:17:37;18.80;92.20